createdAt,value
2023-02-01T00:01:12.336Z,97534.44
2023-02-01T00:03:39.889Z,97545.91
2023-02-01T00:06:07.439Z,97542.47
2023-02-01T00:08:36.135Z,97543.66
2023-02-01T00:11:06.639Z,97535.84
2023-02-01T00:13:36.344Z,97546.09
2023-02-01T00:16:09.338Z,97531.94
2023-02-01T00:18:37.365Z,97555.03
2023-02-01T00:21:05.658Z,97544.03
2023-02-01T00:23:35.327Z,97553.13
2023-02-01T00:26:04.874Z,97562.47
2023-02-01T00:28:32.737Z,97558.41
2023-02-01T00:31:05.471Z,97557.50
2023-02-01T00:33:33.944Z,97565.84
2023-02-01T00:36:07.931Z,97567.50
2023-02-01T00:38:38.795Z,97568.31
2023-02-01T00:41:19.204Z,97562.03
2023-02-01T00:43:47.784Z,97569.56
2023-02-01T00:46:17.025Z,97579.66
2023-02-01T00:48:45.567Z,97573.56
2023-02-01T00:51:16.101Z,97565.97
2023-02-01T00:53:43.735Z,97576.75
2023-02-01T00:56:11.592Z,97562.03
2023-02-01T00:58:39.464Z,97566.47
2023-02-01T01:01:26.424Z,97571.75
2023-02-01T01:03:58.887Z,97573.50
2023-02-01T01:06:34.546Z,97580.75
2023-02-01T01:09:06.818Z,97576.88
2023-02-01T01:11:37.622Z,97578.81
2023-02-01T01:14:08.546Z,97578.06
2023-02-01T01:16:37.532Z,97578.41
2023-02-01T01:19:05.355Z,97591.63
2023-02-01T01:21:32.858Z,97577.44
2023-02-01T01:24:00.486Z,97574.66
2023-02-01T01:26:30.072Z,97578.09
2023-02-01T01:28:59.862Z,97582.84
2023-02-01T01:31:28.696Z,97576.13
2023-02-01T01:33:58.647Z,97574.69
2023-02-01T01:36:27.743Z,97578.50
2023-02-01T01:38:55.908Z,97579.59
2023-02-01T01:41:30.175Z,97587.53
2023-02-01T01:44:03.889Z,97581.19
2023-02-01T01:46:35.590Z,97573.69
2023-02-01T01:49:21.005Z,97572.06
2023-02-01T01:52:03.070Z,97572.69
2023-02-01T01:54:38.845Z,97583.59
2023-02-01T01:57:12.850Z,97579.31
2023-02-01T01:59:42.887Z,97574.78
2023-02-01T02:02:11.381Z,97577.25
2023-02-01T02:04:39.493Z,97579.59
2023-02-01T02:07:15.035Z,97573.34
2023-02-01T02:09:54.566Z,97565.44
2023-02-01T02:12:28.064Z,97557.38
2023-02-01T02:14:57.057Z,97546.41
2023-02-01T02:17:30.437Z,97544.75
2023-02-01T02:20:06.125Z,97561.81
2023-02-01T02:22:58.889Z,97558.19
2023-02-01T02:25:53.450Z,97553.72
2023-02-01T02:28:57.853Z,97528.94
2023-02-01T02:31:52.540Z,97546.47
2023-02-01T02:34:26.950Z,97537.38
2023-02-01T02:36:57.555Z,97543.09
2023-02-01T02:39:55.763Z,97539.81
2023-02-01T02:42:54.866Z,97545.91
2023-02-01T02:46:00.413Z,97523.97
2023-02-01T02:48:52.800Z,97532.50
2023-02-01T02:51:47.778Z,97532.03
2023-02-01T02:54:39.711Z,97525.13
2023-02-01T02:57:29.355Z,97526.69
2023-02-01T03:00:21.242Z,97530.59
2023-02-01T03:03:08.959Z,97541.03
2023-02-01T03:05:40.885Z,97543.13
2023-02-01T03:08:17.263Z,97536.03
2023-02-01T03:11:08.429Z,97544.50
2023-02-01T03:13:53.205Z,97540.22
2023-02-01T03:16:34.728Z,97544.31
2023-02-01T03:19:08.472Z,97545.69
2023-02-01T03:21:41.815Z,97537.78
2023-02-01T03:24:41.289Z,97548.50
2023-02-01T03:27:36.041Z,97546.06
2023-02-01T03:30:12.607Z,97558.84
2023-02-01T03:33:02.151Z,97556.47
2023-02-01T03:36:27.582Z,97551.19
2023-02-01T03:39:16.186Z,97555.28
2023-02-01T03:41:56.669Z,97544.31
2023-02-01T03:44:46.982Z,97536.25
2023-02-01T03:47:22.432Z,97543.66
2023-02-01T03:50:02.172Z,97553.97
2023-02-01T03:52:38.993Z,97547.69
2023-02-01T03:55:08.156Z,97538.16
2023-02-01T03:57:41.633Z,97540.06
2023-02-01T04:00:25.162Z,97540.22
2023-02-01T04:02:54.127Z,97536.63
2023-02-01T04:05:22.515Z,97533.78
2023-02-01T04:08:01.217Z,97536.41
2023-02-01T04:10:28.970Z,97538.66
2023-02-01T04:12:56.425Z,97537.06
2023-02-01T04:15:24.113Z,97520.63
2023-02-01T04:17:51.490Z,97524.75
2023-02-01T04:20:19.052Z,97513.59
2023-02-01T04:22:46.497Z,97512.78
2023-02-01T04:25:14.094Z,97510.03
2023-02-01T04:27:41.472Z,97511.06
2023-02-01T04:30:12.507Z,97510.22
2023-02-01T04:32:40.574Z,97501.28
2023-02-01T04:35:08.763Z,97493.22
2023-02-01T04:37:36.521Z,97495.88
2023-02-01T04:40:04.843Z,97484.25
2023-02-01T04:42:32.409Z,97487.91
2023-02-01T04:44:59.924Z,97488.28
2023-02-01T04:47:27.584Z,97481.56
2023-02-01T04:49:55.094Z,97482.47
2023-02-01T04:52:22.698Z,97488.91
2023-02-01T04:54:50.195Z,97474.31
2023-02-01T04:57:17.711Z,97470.81
2023-02-01T04:59:45.206Z,97474.75
2023-02-01T05:02:12.664Z,97472.13
2023-02-01T05:04:40.247Z,97466.03
2023-02-01T05:07:07.875Z,97462.97
2023-02-01T05:09:35.274Z,97450.78
2023-02-01T05:12:21.584Z,97443.28
2023-02-01T05:14:49.136Z,97437.47
2023-02-01T05:17:17.113Z,97435.84
2023-02-01T05:19:44.586Z,97422.84
2023-02-01T05:22:12.105Z,97426.66
2023-02-01T05:24:39.735Z,97422.47
2023-02-01T05:27:07.223Z,97431.38
2023-02-01T05:29:34.825Z,97425.31
2023-02-01T05:32:19.380Z,97434.19
2023-02-01T05:34:48.437Z,97425.38
2023-02-01T05:37:15.961Z,97417.84
2023-02-01T05:39:43.716Z,97428.59
2023-02-01T05:42:11.725Z,97421.53
2023-02-01T05:44:39.280Z,97421.97
2023-02-01T05:47:07.075Z,97417.91
2023-02-01T05:49:34.600Z,97427.63
2023-02-01T05:52:02.350Z,97424.97
2023-02-01T05:54:30.075Z,97423.59
2023-02-01T05:56:57.576Z,97427.66
2023-02-01T05:59:25.088Z,97422.16
2023-02-01T06:01:52.547Z,97424.34
2023-02-01T06:04:20.075Z,97417.63
2023-02-01T06:06:47.503Z,97421.34
2023-02-01T06:09:15.014Z,97415.44
2023-02-01T06:11:42.535Z,97412.63
2023-02-01T06:14:10.073Z,97407.53
2023-02-01T06:16:37.513Z,97409.19
2023-02-01T06:19:05.413Z,97412.81
2023-02-01T06:21:34.512Z,97400.66
2023-02-01T06:24:02.083Z,97405.50
2023-02-01T06:26:30.273Z,97406.88
2023-02-01T06:28:57.825Z,97401.63
2023-02-01T06:31:26.882Z,97402.84
2023-02-01T06:33:54.739Z,97412.81
2023-02-01T06:36:22.428Z,97412.63
2023-02-01T06:38:50.003Z,97416.44
2023-02-01T06:41:17.731Z,97409.13
2023-02-01T06:43:46.655Z,97406.94
2023-02-01T06:46:15.017Z,97415.00
2023-02-01T06:48:43.916Z,97412.81
2023-02-01T06:51:25.269Z,97398.66
2023-02-01T06:53:53.195Z,97411.06
2023-02-01T06:56:21.478Z,97405.00
2023-02-01T06:58:49.902Z,97413.69
2023-02-01T07:01:17.929Z,97398.06
2023-02-01T07:03:48.997Z,97396.03
2023-02-01T07:06:16.492Z,97405.53
2023-02-01T07:08:44.678Z,97397.47
2023-02-01T07:11:14.264Z,97401.53
2023-02-01T07:13:42.260Z,97395.50
2023-02-01T07:16:16.232Z,97395.69
2023-02-01T07:18:44.133Z,97398.66
2023-02-01T07:21:11.629Z,97398.66
2023-02-01T07:23:39.306Z,97387.88
2023-02-01T07:26:09.045Z,97390.25
2023-02-01T07:28:38.767Z,97380.84
2023-02-01T07:31:08.505Z,97387.94
2023-02-01T07:33:36.792Z,97401.69
2023-02-01T07:36:07.101Z,97377.69
2023-02-01T07:38:35.140Z,97385.56
2023-02-01T07:41:04.088Z,97386.50
2023-02-01T07:43:32.500Z,97399.84
2023-02-01T07:46:00.378Z,97395.78
2023-02-01T07:48:29.287Z,97385.91
2023-02-01T07:51:04.906Z,97384.50
2023-02-01T07:53:34.296Z,97381.69
2023-02-01T07:56:02.696Z,97369.16
2023-02-01T07:58:30.490Z,97377.00
2023-02-01T08:01:16.413Z,97381.88
2023-02-01T08:03:44.052Z,97369.09
2023-02-01T08:06:11.455Z,97376.56
2023-02-01T08:08:39.236Z,97355.69
2023-02-01T08:11:07.872Z,97362.00
2023-02-01T08:13:36.620Z,97363.19
2023-02-01T08:16:07.310Z,97356.19
2023-02-01T08:18:36.022Z,97366.97
2023-02-01T08:21:24.226Z,97360.28
2023-02-01T08:23:52.670Z,97345.63
2023-02-01T08:26:27.264Z,97350.56
2023-02-01T08:29:00.905Z,97351.03
2023-02-01T08:31:29.653Z,97347.28
2023-02-01T08:34:00.645Z,97350.28
2023-02-01T08:36:30.117Z,97338.91
2023-02-01T08:38:58.404Z,97334.03
2023-02-01T08:41:28.773Z,97330.19
2023-02-01T08:43:57.853Z,97318.56
2023-02-01T08:46:25.709Z,97327.53
2023-02-01T08:48:53.650Z,97311.16
2023-02-01T08:51:23.808Z,97315.47
2023-02-01T08:53:51.944Z,97320.34
2023-02-01T08:56:20.858Z,97323.78
2023-02-01T08:58:48.406Z,97315.09
2023-02-01T09:01:18.193Z,97311.00
2023-02-01T09:03:46.751Z,97316.63
2023-02-01T09:06:16.124Z,97313.44
2023-02-01T09:08:44.909Z,97304.75
2023-02-01T09:11:15.984Z,97315.38
2023-02-01T09:13:43.920Z,97323.69
2023-02-01T09:16:11.854Z,97317.00
2023-02-01T09:18:50.921Z,97327.97
2023-02-01T09:21:24.064Z,97313.81
2023-02-01T09:23:52.799Z,97307.97
2023-02-01T09:26:26.547Z,97316.66
2023-02-01T09:28:58.904Z,97327.81
2023-02-01T09:31:26.463Z,97326.03
2023-02-01T09:33:54.129Z,97333.47
2023-02-01T09:36:21.652Z,97334.91
2023-02-01T09:38:53.195Z,97344.84
2023-02-01T09:41:42.800Z,97332.63
2023-02-01T09:44:35.656Z,97325.72
2023-02-01T09:47:13.517Z,97323.59
2023-02-01T09:49:49.886Z,97335.22
2023-02-01T09:52:35.236Z,97339.09
2023-02-01T09:55:08.478Z,97339.94
2023-02-01T09:58:03.397Z,97341.81
2023-02-01T10:00:36.578Z,97345.66
2023-02-01T10:03:05.053Z,97358.91
2023-02-01T10:05:50.712Z,97364.09
2023-02-01T10:08:34.850Z,97361.19
2023-02-01T10:11:20.735Z,97365.53
2023-02-01T10:13:54.204Z,97362.22
2023-02-01T10:16:42.735Z,97378.31
2023-02-01T10:19:31.776Z,97370.91
2023-02-01T10:22:03.862Z,97380.81
2023-02-01T10:24:42.006Z,97384.03
2023-02-01T10:27:21.437Z,97392.34
2023-02-01T10:29:55.861Z,97389.09
2023-02-01T10:32:35.734Z,97383.75
2023-02-01T10:35:14.485Z,97383.59
2023-02-01T10:37:44.225Z,97390.03
2023-02-01T10:40:23.518Z,97377.38
2023-02-01T10:42:54.389Z,97387.25
2023-02-01T10:45:26.023Z,97395.41
2023-02-01T10:47:55.913Z,97402.50
2023-02-01T10:50:40.340Z,97387.91
2023-02-01T10:53:18.379Z,97379.34
2023-02-01T10:55:45.861Z,97392.56
2023-02-01T10:58:21.790Z,97388.00
2023-02-01T11:05:06.797Z,97388.09
2023-02-01T11:07:34.492Z,97398.91
2023-02-01T11:10:03.064Z,97391.25
2023-02-01T11:12:37.090Z,97401.66
2023-02-01T11:15:22.906Z,97399.09
2023-02-01T11:17:57.337Z,97405.13
2023-02-01T11:20:41.220Z,97388.97
2023-02-01T11:23:20.911Z,97399.00
2023-02-01T11:26:08.844Z,97400.63
2023-02-01T11:28:39.677Z,97389.53
2023-02-01T11:31:13.639Z,97388.34
2023-02-01T11:34:06.822Z,97385.69
2023-02-01T11:36:36.995Z,97381.41
2023-02-01T11:39:32.329Z,97390.59
2023-02-01T11:42:06.682Z,97392.44
2023-02-01T11:44:40.101Z,97391.09
2023-02-01T11:47:21.255Z,97367.00
2023-02-01T11:49:50.908Z,97379.84
2023-02-01T11:52:44.444Z,97366.50
2023-02-01T11:55:14.907Z,97375.78
2023-02-01T11:57:58.514Z,97367.41
2023-02-01T12:00:51.421Z,97363.91
2023-02-01T12:03:47.231Z,97367.44
2023-02-01T12:06:32.807Z,97369.66
2023-02-01T12:09:27.711Z,97365.56
2023-02-01T12:12:55.680Z,97361.94
2023-02-01T12:15:48.405Z,97354.88
2023-02-01T12:18:31.523Z,97351.00
2023-02-01T12:21:07.598Z,97347.16
2023-02-01T12:23:59.669Z,97339.47
2023-02-01T12:26:27.164Z,97335.16
2023-02-01T12:29:19.977Z,97341.06
2023-02-01T12:32:02.576Z,97340.81
2023-02-01T12:34:54.658Z,97332.72
2023-02-01T12:37:45.465Z,97330.66
2023-02-01T12:40:26.040Z,97329.69
2023-02-01T12:43:02.801Z,97326.66
2023-02-01T12:45:37.277Z,97320.34
2023-02-01T12:48:26.459Z,97333.16
2023-02-01T12:51:00.347Z,97343.28
2023-02-01T12:53:39.261Z,97335.22
2023-02-01T12:56:12.470Z,97328.72
2023-02-01T12:58:43.889Z,97317.16
2023-02-01T13:01:29.369Z,97333.41
2023-02-01T13:04:15.549Z,97314.13
2023-02-01T13:06:45.273Z,97317.81
2023-02-01T13:09:35.578Z,97326.16
2023-02-01T13:12:14.566Z,97320.47
2023-02-01T13:14:47.762Z,97318.25
2023-02-01T13:17:24.573Z,97315.59
2023-02-01T13:19:58.122Z,97314.38
2023-02-01T13:22:42.378Z,97321.44
2023-02-01T13:25:17.436Z,97312.38
2023-02-01T13:27:45.749Z,97315.81
2023-02-01T13:30:25.597Z,97315.41
2023-02-01T13:33:52.223Z,97314.00
2023-02-01T13:35:48.389Z,97317.25
2023-02-01T13:38:34.949Z,97312.19
2023-02-01T13:41:30.997Z,97315.63
2023-02-01T13:44:11.419Z,97307.31
2023-02-01T13:46:48.041Z,97309.56
2023-02-01T13:49:26.477Z,97306.50
2023-02-01T13:51:57.729Z,97308.13
2023-02-01T13:54:37.029Z,97307.94
2023-02-01T13:57:07.529Z,97293.91
2023-02-01T13:59:40.768Z,97293.50
2023-02-01T14:02:39.262Z,97287.00
2023-02-01T14:05:37.220Z,97283.78
2023-02-01T14:08:07.707Z,97287.22
2023-02-01T14:10:58.036Z,97284.97
2023-02-01T14:13:39.426Z,97288.22
2023-02-01T14:16:07.398Z,97292.69
2023-02-01T14:18:34.903Z,97283.75
2023-02-01T14:21:27.690Z,97289.03
2023-02-01T14:23:55.217Z,97279.31
2023-02-01T14:26:46.118Z,97295.53
2023-02-01T14:29:20.812Z,97280.69
2023-02-01T14:32:00.884Z,97277.44
2023-02-01T14:34:28.470Z,97284.16
2023-02-01T14:37:03.158Z,97272.56
2023-02-01T14:39:36.338Z,97258.78
2023-02-01T14:42:26.447Z,97281.72
2023-02-01T14:45:14.001Z,97270.16
2023-02-01T14:47:41.908Z,97268.94
2023-02-01T14:50:19.162Z,97261.00
2023-02-01T14:53:03.130Z,97269.53
2023-02-01T14:55:38.886Z,97264.66
2023-02-01T14:58:19.504Z,97278.06
2023-02-01T15:00:51.480Z,97284.72
2023-02-01T15:03:31.061Z,97276.81
2023-02-01T15:06:05.439Z,97280.84
2023-02-01T15:08:37.246Z,97284.09
2023-02-01T15:11:12.668Z,97274.75
2023-02-01T15:13:40.300Z,97269.88
2023-02-01T15:16:16.190Z,97271.50
2023-02-01T15:18:43.788Z,97262.38
2023-02-01T15:21:29.796Z,97259.53
2023-02-01T15:24:16.053Z,97259.72
2023-02-01T15:26:43.815Z,97250.38
2023-02-01T15:29:15.543Z,97249.19
2023-02-01T15:31:52.713Z,97250.19
2023-02-01T15:34:21.170Z,97257.09
2023-02-01T15:37:02.416Z,97241.66
2023-02-01T15:39:32.871Z,97234.13
2023-02-01T15:42:10.427Z,97255.81
2023-02-01T15:44:47.350Z,97247.88
2023-02-01T15:47:18.425Z,97241.19
2023-02-01T15:49:51.716Z,97228.00
2023-02-01T15:52:23.833Z,97211.69
2023-02-01T15:54:55.221Z,97209.28
2023-02-01T15:57:31.561Z,97194.66
2023-02-01T16:00:09.058Z,97203.72
2023-02-01T16:02:52.617Z,97188.13
2023-02-01T16:05:42.110Z,97201.50
2023-02-01T16:08:27.559Z,97206.13
2023-02-01T16:11:03.229Z,97195.41
2023-02-01T16:13:30.791Z,97190.69
2023-02-01T16:15:58.445Z,97190.59
2023-02-01T16:18:25.960Z,97178.84
2023-02-01T16:20:53.457Z,97181.00
2023-02-01T16:23:21.574Z,97170.84
2023-02-01T16:25:49.112Z,97147.31
2023-02-01T16:28:16.617Z,97134.28
2023-02-01T16:30:44.197Z,97144.81
2023-02-01T16:33:18.913Z,97141.81
2023-02-01T16:35:46.670Z,97136.16
2023-02-01T16:38:16.263Z,97126.28
2023-02-01T16:40:47.362Z,97123.28
2023-02-01T16:43:24.817Z,97103.44
2023-02-01T16:45:55.358Z,97109.38
2023-02-01T16:48:34.173Z,97100.91
2023-02-01T16:51:10.701Z,97107.78
2023-02-01T16:53:53.190Z,97119.53
2023-02-01T16:56:24.250Z,97128.03
2023-02-01T16:58:51.773Z,97114.06
2023-02-01T17:01:20.300Z,97124.97
2023-02-01T17:03:48.396Z,97134.88
2023-02-01T17:06:19.237Z,97121.69
2023-02-01T17:08:51.234Z,97128.00
2023-02-01T17:11:18.826Z,97125.91
2023-02-01T17:13:46.499Z,97156.81
2023-02-01T17:16:28.377Z,97196.91
2023-02-01T17:19:03.661Z,97239.91
2023-02-01T17:21:38.915Z,97299.06
2023-02-01T17:24:07.380Z,97308.34
2023-02-01T17:26:35.308Z,97288.19
2023-02-01T17:29:03.889Z,97253.34
2023-02-01T17:31:34.380Z,97248.19
2023-02-01T17:34:01.936Z,97258.31
2023-02-01T17:36:29.399Z,97262.38
2023-02-01T17:39:05.747Z,97263.56
2023-02-01T17:41:34.777Z,97268.00
2023-02-01T17:44:03.127Z,97256.16
2023-02-01T17:46:31.968Z,97256.53
2023-02-01T17:48:59.608Z,97269.44
2023-02-01T17:51:28.800Z,97276.25
2023-02-01T17:53:56.319Z,97261.66
2023-02-01T17:56:25.339Z,97271.19
2023-02-01T17:58:52.811Z,97275.72
2023-02-01T18:01:23.599Z,97280.31
2023-02-01T18:03:52.100Z,97291.47
2023-02-01T18:06:28.469Z,97302.03
2023-02-01T18:08:56.002Z,97288.09
2023-02-01T18:11:24.900Z,97294.25
2023-02-01T18:13:53.730Z,97307.81
2023-02-01T18:16:21.138Z,97298.13
2023-02-01T18:18:49.271Z,97296.88
2023-02-01T18:21:18.199Z,97290.38
2023-02-01T18:23:46.075Z,97302.84
2023-02-01T18:26:16.473Z,97300.06
2023-02-01T18:28:44.171Z,97306.94
2023-02-01T18:31:22.874Z,97309.66
2023-02-01T18:33:55.692Z,97317.72
2023-02-01T18:36:24.505Z,97307.00
2023-02-01T18:38:54.189Z,97309.84
2023-02-01T18:41:23.333Z,97303.03
2023-02-01T18:43:52.443Z,97308.47
2023-02-01T18:46:21.872Z,97300.22
2023-02-01T18:48:49.561Z,97308.91
2023-02-01T18:51:20.309Z,97308.47
2023-02-01T18:53:48.846Z,97303.38
2023-02-01T18:56:20.348Z,97316.88
2023-02-01T18:58:47.985Z,97314.53
2023-02-01T19:01:20.053Z,97328.03
2023-02-01T19:04:02.929Z,97325.41
2023-02-01T19:06:36.591Z,97328.03
2023-02-01T19:09:04.232Z,97326.84
2023-02-01T19:11:31.849Z,97322.03
2023-02-01T19:13:59.299Z,97330.47
2023-02-01T19:16:26.905Z,97335.09
2023-02-01T19:18:54.543Z,97334.53
2023-02-01T19:21:22.055Z,97330.94
2023-02-01T19:23:49.550Z,97324.66
2023-02-01T19:26:18.276Z,97329.38
2023-02-01T19:28:49.073Z,97326.28
2023-02-01T19:31:17.939Z,97333.19
2023-02-01T19:33:45.560Z,97324.31
2023-02-01T19:36:13.081Z,97322.31
2023-02-01T19:38:40.611Z,97312.34
2023-02-01T19:41:08.298Z,97317.97
2023-02-01T19:43:37.028Z,97313.34
2023-02-01T19:46:04.816Z,97313.50
2023-02-01T19:48:34.771Z,97319.84
2023-02-01T19:51:04.270Z,97316.06
2023-02-01T19:53:31.725Z,97324.00
2023-02-01T19:56:01.602Z,97322.41
2023-02-01T19:58:29.109Z,97317.13
2023-02-01T20:00:57.265Z,97313.41
2023-02-01T20:03:24.940Z,97318.28
2023-02-01T20:05:57.440Z,97309.78
2023-02-01T20:08:26.173Z,97316.69
2023-02-01T20:10:53.774Z,97306.78
2023-02-01T20:13:21.372Z,97307.16
2023-02-01T20:15:55.456Z,97310.22
2023-02-01T20:18:23.053Z,97314.50
2023-02-01T20:20:54.417Z,97314.50
2023-02-01T20:23:21.826Z,97317.34
2023-02-01T20:25:50.209Z,97328.25
2023-02-01T20:28:17.767Z,97333.13
2023-02-01T20:30:46.467Z,97328.72
2023-02-01T20:33:14.002Z,97343.09
2023-02-01T20:35:45.334Z,97342.28
2023-02-01T20:38:14.112Z,97336.84
2023-02-01T20:40:41.525Z,97354.41
2023-02-01T20:43:09.097Z,97361.13
2023-02-01T20:45:41.053Z,97370.75
2023-02-01T20:48:09.740Z,97350.19
2023-02-01T20:50:38.040Z,97351.34
2023-02-01T20:53:05.587Z,97360.59
2023-02-01T20:55:33.087Z,97362.97
2023-02-01T20:58:00.560Z,97367.13
2023-02-01T21:00:28.343Z,97366.41
2023-02-01T21:02:55.812Z,97368.84
2023-02-01T21:05:23.442Z,97364.66
2023-02-01T21:07:51.181Z,97366.09
2023-02-01T21:10:18.845Z,97375.44
2023-02-01T21:12:46.377Z,97373.81
2023-02-01T21:15:13.858Z,97375.88
2023-02-01T21:17:41.336Z,97370.19
2023-02-01T21:20:09.342Z,97375.53
2023-02-01T21:22:36.916Z,97380.91
2023-02-01T21:25:04.624Z,97384.41
2023-02-01T21:27:32.119Z,97381.22
2023-02-01T21:29:59.598Z,97384.22
2023-02-01T21:32:27.126Z,97372.28
2023-02-01T21:34:54.629Z,97373.25
2023-02-01T21:37:25.781Z,97372.44
2023-02-01T21:39:53.705Z,97369.66
2023-02-01T21:42:22.163Z,97380.91
2023-02-01T21:44:49.750Z,97384.50
2023-02-01T21:47:25.908Z,97380.34
2023-02-01T21:49:54.829Z,97386.97
2023-02-01T21:52:23.270Z,97383.53
2023-02-01T21:54:57.085Z,97390.69
2023-02-01T21:57:24.610Z,97387.13
2023-02-01T21:59:52.025Z,97391.41
2023-02-01T22:02:19.686Z,97394.66
2023-02-01T22:04:49.184Z,97396.66
2023-02-01T22:07:16.834Z,97396.09
2023-02-01T22:09:44.474Z,97395.94
2023-02-01T22:12:13.624Z,97400.91
2023-02-01T22:14:44.809Z,97387.78
2023-02-01T22:17:13.352Z,97391.50
2023-02-01T22:19:41.633Z,97390.03
2023-02-01T22:22:11.725Z,97389.41
2023-02-01T22:24:39.269Z,97402.19
2023-02-01T22:27:13.282Z,97399.91
2023-02-01T22:29:43.545Z,97407.78
2023-02-01T22:32:13.369Z,97402.53
2023-02-01T22:34:40.933Z,97392.75
2023-02-01T22:37:08.868Z,97399.81
2023-02-01T22:39:36.931Z,97400.19
2023-02-01T22:42:05.214Z,97396.19
2023-02-01T22:44:32.916Z,97393.03
2023-02-01T22:47:00.354Z,97394.66
2023-02-01T22:49:27.916Z,97397.13
2023-02-01T22:51:55.312Z,97401.63
2023-02-01T22:54:23.101Z,97399.81
2023-02-01T22:56:50.998Z,97407.50
2023-02-01T22:59:18.561Z,97398.28
2023-02-01T23:01:46.090Z,97392.56
2023-02-01T23:04:15.150Z,97410.78
2023-02-01T23:06:43.114Z,97408.78
2023-02-01T23:09:16.508Z,97413.41
2023-02-01T23:11:44.649Z,97410.41
2023-02-01T23:14:13.633Z,97412.22
2023-02-01T23:16:41.776Z,97414.41
2023-02-01T23:19:09.406Z,97420.66
2023-02-01T23:21:37.321Z,97419.66
2023-02-01T23:24:07.515Z,97424.34
2023-02-01T23:26:35.410Z,97420.13
2023-02-01T23:29:04.075Z,97417.47
2023-02-01T23:31:34.908Z,97420.28
2023-02-01T23:34:04.202Z,97416.84
2023-02-01T23:36:33.130Z,97411.34
2023-02-01T23:39:02.240Z,97404.88
2023-02-01T23:41:30.280Z,97413.69
2023-02-01T23:43:58.214Z,97409.69
2023-02-01T23:46:47.624Z,97412.31
2023-02-01T23:49:17.093Z,97419.22
2023-02-01T23:51:47.600Z,97411.34
2023-02-01T23:54:15.196Z,97409.31
2023-02-01T23:56:44.746Z,97412.16
2023-02-01T23:59:18.473Z,97408.25
